Port Dufferin, Canada
Current Conditions -  °F | °C
As of 3:00 PM on Sunday 23 Nov 2014 (Local Time) from CYHZ Reporting Station
Broken Clouds Broken Clouds  
Wind Chill: 36°   Ceiling: 3200
Heat Index: 43°   Visibility: 15mi
Dew Point: 32°   Wind: 13mph
Humidity: 66%   Direction: 310°NW
Pressure: 30.05"   Gusts: NA
Location:  44.92°N, 62.38°W
Report Text: CYHZ 231900Z 31011KT 15SM BKN032 BKN250 06/00 A3005 RMK SC5CI1 PRESRR SLP180
Loading
Personal Weather Stations






























Interactive Weather Map New forecast layout! Learn more

10-Day Weather Forecast

Advertisements
Track Severe Weather on mobile